OIIS  Semnan Airport

Add Bookmark

Semnan, Iran

Status
Operational
Latitude Longitude
35° 35' 27" N 53° 29' 42" E
35.591099 53.495098
Local (DST + 5) UTC (GMT + 4)
Jul 25, 2014 12:31 Jul 24, 2014 20:01
Sunrise-Sunset Local UTC
Begin Civil Twilight 05:29 00:59
Sunrise 05:57 01:27
Sunset 08:07 15:37
End Civil Twilight 08:36 16:06

Current Weather

METAR Observed VFR
OIIS 241900Z 06002KT CAVOK 32/06 Q1010 Thu, Jul 24, 2014 @ 19:00 UTC
(1 Hour, 1 Minute ago)
Visual Flight Rules

Decoded METAR

Wind Visibility Clouds Conditions
060° at 2 knots (4 kph) 10 km or more
  • Clear skies
  • No significant weather
Temperatures Readings Precipitation
Current Temp 32°C (90°F)
Dewpoint 6°C (43°F)
Humidity 20%
Altimeter 29.82"Hg
Sea Level Pressure 1010mb
Field Elevation 3658.14'
None Recorded

Additional weather within a 185.2km radius of OIIS

Map ICAO Location
OINZ 119.3km N (347°)
OINB 146.5km N (329°)
OING 167.4km N (029°)

24 Hour Weather History

Loading
-

24 Hour Weather Graphs

Loading
-

CheckWX.com is intended as a tool to help pilots better visualize weather data. It is not intended as a substitute for an official weather briefing obtained from a Flight Service Station. CheckWX.com does not meet the FAA requirements for an official pre-flight weather briefing. Therefore, it's important that pilots still call and obtain an official FSS pre-flight weather briefing.